Yeowardville, Illinois
Current Conditions -  °F | °C
As of 7:55 AM on Wednesday 28 Jan 2015 (Local Time) from KSQI Reporting Station
Few Clouds Few Clouds  
Wind Chill: 17°   Ceiling: Unl
Heat Index: 25°   Visibility: 8mi
Dew Point: 21°   Wind: 7mph
Humidity: 86%   Direction: 140°SE
Pressure: 30.23"   Gusts: NA
Location:  41.7267°N, 89.7066°W
Report Text: KSQI 281355Z AUTO 14006KT 8SM FEW015 M04/M06 A3023 RMK AO1
Loading
Personal Weather Stations






























Interactive Weather Map New forecast layout! Learn more

10-Day Weather Forecast

Advertisements
Track Severe Weather on mobile